createdAt,value
2023-04-24T00:02:12.235Z,98696.13
2023-04-24T00:07:14.211Z,98712.59
2023-04-24T00:12:16.001Z,98701.06
2023-04-24T00:17:20.894Z,98717.50
2023-04-24T00:22:23.136Z,98714.28
2023-04-24T00:27:24.792Z,98716.25
2023-04-24T00:32:26.585Z,98710.28
2023-04-24T00:37:28.355Z,98707.13
2023-04-24T00:42:30.151Z,98705.75
2023-04-24T00:47:33.716Z,98708.94
2023-04-24T00:52:35.604Z,98702.88
2023-04-24T00:57:38.578Z,98692.97
2023-04-24T01:02:45.071Z,98700.34
2023-04-24T01:07:50.040Z,98697.72
2023-04-24T01:12:52.785Z,98692.13
2023-04-24T01:17:54.569Z,98689.78
2023-04-24T01:22:57.581Z,98697.66
2023-04-24T01:27:59.755Z,98708.31
2023-04-24T01:33:01.921Z,98702.19
2023-04-24T01:38:03.849Z,98702.19
2023-04-24T01:43:05.640Z,98698.66
2023-04-24T01:48:07.491Z,98701.53
2023-04-24T01:53:09.681Z,98695.19
2023-04-24T01:58:11.664Z,98694.63
2023-04-24T02:03:13.501Z,98694.63
2023-04-24T02:08:15.341Z,98692.91
2023-04-24T02:13:17.065Z,98695.66
2023-04-24T02:18:19.262Z,98692.44
2023-04-24T02:23:21.333Z,98688.50
2023-04-24T02:28:23.089Z,98700.72
2023-04-24T02:33:25.942Z,98694.06
2023-04-24T02:38:27.627Z,98696.19
2023-04-24T02:43:29.397Z,98683.81
2023-04-24T02:48:31.142Z,98680.78
2023-04-24T02:53:32.996Z,98687.66
2023-04-24T02:58:34.917Z,98681.81
2023-04-24T03:03:37.506Z,98692.34
2023-04-24T03:08:39.405Z,98681.66
2023-04-24T03:13:41.104Z,98688.25
2023-04-24T03:18:42.924Z,98679.50
2023-04-24T03:23:45.752Z,98679.50
2023-04-24T03:28:47.519Z,98679.50
2023-04-24T03:33:49.370Z,98683.06
2023-04-24T03:38:51.664Z,98684.34
2023-04-24T03:44:03.768Z,98689.94
2023-04-24T03:49:06.850Z,98688.13
2023-04-24T03:54:12.342Z,98698.81
2023-04-24T03:59:15.519Z,98701.19
2023-04-24T04:04:21.291Z,98713.72
2023-04-24T04:09:23.192Z,98717.22
2023-04-24T04:14:25.009Z,98717.84
2023-04-24T04:19:27.578Z,98710.41
2023-04-24T04:24:29.739Z,98713.13
2023-04-24T04:29:33.850Z,98712.34
2023-04-24T04:34:38.765Z,98713.72
2023-04-24T04:39:42.791Z,98714.41
2023-04-24T04:44:58.494Z,98709.97
2023-04-24T04:50:11.526Z,98709.84
2023-04-24T04:55:14.424Z,98710.97
2023-04-24T05:00:38.764Z,98729.06
2023-04-24T05:06:03.497Z,98736.06
2023-04-24T05:11:08.954Z,98732.63
2023-04-24T05:16:12.102Z,98729.22
2023-04-24T05:21:15.002Z,98725.56
2023-04-24T05:26:20.327Z,98726.06
2023-04-24T05:31:22.293Z,98724.53
2023-04-24T05:36:25.518Z,98724.91
2023-04-24T05:41:28.408Z,98724.63
2023-04-24T05:46:30.259Z,98725.81
2023-04-24T05:51:32.744Z,98730.31
2023-04-24T05:56:34.905Z,98740.34
2023-04-24T06:01:39.402Z,98738.03
2023-04-24T06:06:46.998Z,98736.56
2023-04-24T06:11:53.713Z,98739.63
2023-04-24T06:16:58.707Z,98741.78
2023-04-24T06:22:13.732Z,98748.97
2023-04-24T06:27:16.670Z,98746.22
2023-04-24T06:32:18.399Z,98750.22
2023-04-24T06:37:21.578Z,98748.22
2023-04-24T06:42:24.780Z,98747.56
2023-04-24T06:47:26.600Z,98749.56
2023-04-24T06:52:28.405Z,98749.50
2023-04-24T06:57:30.751Z,98747.47
2023-04-24T07:02:32.696Z,98760.75
2023-04-24T07:07:35.223Z,98756.63
2023-04-24T07:12:37.043Z,98769.41
2023-04-24T07:17:39.593Z,98758.75
2023-04-24T07:22:41.688Z,98768.78
2023-04-24T07:27:43.445Z,98768.16
2023-04-24T07:32:45.420Z,98772.28
2023-04-24T07:37:47.483Z,98775.97
2023-04-24T07:42:52.193Z,98777.13
2023-04-24T07:47:53.927Z,98769.50
2023-04-24T07:52:55.838Z,98779.97
2023-04-24T07:57:57.549Z,98787.59
2023-04-24T08:02:59.455Z,98781.44
2023-04-24T08:08:01.398Z,98776.22
2023-04-24T08:13:03.695Z,98785.72
2023-04-24T08:18:05.778Z,98786.34
2023-04-24T08:23:07.490Z,98783.63
2023-04-24T08:28:10.260Z,98794.84
2023-04-24T08:33:11.882Z,98783.13
2023-04-24T08:38:13.516Z,98801.00
2023-04-24T08:43:16.709Z,98798.69
2023-04-24T08:48:29.632Z,98804.47
2023-04-24T08:53:34.082Z,98799.97
2023-04-24T08:58:36.665Z,98794.13
2023-04-24T09:03:39.669Z,98800.31
2023-04-24T09:08:42.312Z,98799.00
2023-04-24T09:13:44.528Z,98799.22
2023-04-24T09:18:46.945Z,98796.97
2023-04-24T09:23:58.977Z,98795.13
2023-04-24T09:29:00.994Z,98801.63
2023-04-24T09:34:08.239Z,98796.50
2023-04-24T09:39:16.787Z,98807.28
2023-04-24T09:44:21.893Z,98799.13
2023-04-24T09:49:28.346Z,98806.75
2023-04-24T09:54:30.826Z,98794.34
2023-04-24T09:59:33.038Z,98789.22
2023-04-24T10:05:03.226Z,98799.16
2023-04-24T10:10:21.968Z,98791.28
2023-04-24T10:15:39.740Z,98793.16
2023-04-24T10:20:48.933Z,98783.84
2023-04-24T10:25:55.727Z,98780.38
2023-04-24T10:31:02.257Z,98769.50
2023-04-24T10:36:25.873Z,98785.03
2023-04-24T10:41:32.579Z,98781.56
2023-04-24T10:46:36.444Z,98785.38
2023-04-24T10:51:56.882Z,98791.38
2023-04-24T10:57:33.683Z,98788.00
2023-04-24T11:02:41.295Z,98794.25
2023-04-24T11:08:14.227Z,98792.72
2023-04-24T11:13:22.454Z,98792.66
2023-04-24T11:18:24.082Z,98791.06
2023-04-24T11:23:25.715Z,98794.34
2023-04-24T11:28:29.461Z,98801.53
2023-04-24T11:33:32.812Z,98793.91
2023-04-24T11:38:34.510Z,98796.06
2023-04-24T11:43:36.321Z,98793.38
2023-04-24T11:48:41.028Z,98788.34
2023-04-24T11:53:43.563Z,98793.31
2023-04-24T11:58:46.988Z,98807.16
2023-04-24T12:03:50.297Z,98812.19
2023-04-24T12:09:01.676Z,98799.81
2023-04-24T12:14:13.383Z,98795.78
2023-04-24T12:19:21.259Z,98819.44
2023-04-24T12:24:22.863Z,98813.75
2023-04-24T12:29:25.621Z,98806.03
2023-04-24T12:34:27.251Z,98799.06
2023-04-24T12:39:28.969Z,98816.84
2023-04-24T12:44:32.684Z,98825.41
2023-04-24T12:49:34.301Z,98821.06
2023-04-24T12:54:36.116Z,98814.75
2023-04-24T12:59:37.692Z,98811.63
2023-04-24T13:04:39.594Z,98815.53
2023-04-24T13:09:42.106Z,98802.84
2023-04-24T13:14:43.735Z,98800.78
2023-04-24T13:19:46.364Z,98791.63
2023-04-24T13:24:51.924Z,98806.47
2023-04-24T13:29:53.658Z,98808.53
2023-04-24T13:34:55.367Z,98817.69
2023-04-24T13:39:56.924Z,98816.84
2023-04-24T13:44:58.574Z,98821.91
2023-04-24T13:50:00.329Z,98816.91
2023-04-24T13:55:02.277Z,98806.19
2023-04-24T14:00:05.144Z,98800.09
2023-04-24T14:05:09.103Z,98809.81
2023-04-24T14:10:11.361Z,98800.81
2023-04-24T14:15:14.412Z,98805.22
2023-04-24T14:20:16.236Z,98790.47
2023-04-24T14:25:17.861Z,98793.13
2023-04-24T14:30:20.024Z,98797.66
2023-04-24T14:35:21.843Z,98794.72
2023-04-24T14:40:48.599Z,98795.78
2023-04-24T14:45:45.176Z,98796.13
2023-04-24T14:50:46.854Z,98791.22
2023-04-24T14:55:48.555Z,98804.59
2023-04-24T15:00:55.453Z,98803.47
2023-04-24T15:05:57.638Z,98806.50
2023-04-24T15:10:59.502Z,98824.63
2023-04-24T15:16:01.411Z,98823.00
2023-04-24T15:21:03.602Z,98824.06
2023-04-24T15:26:05.356Z,98824.03
2023-04-24T15:31:06.978Z,98832.84
2023-04-24T15:36:09.105Z,98837.22
2023-04-24T15:41:11.897Z,98834.47
2023-04-24T15:46:13.746Z,98844.41
2023-04-24T15:51:15.466Z,98846.34
2023-04-24T15:56:17.079Z,98854.72
2023-04-24T16:01:19.006Z,98853.25
2023-04-24T16:06:20.981Z,98856.84
2023-04-24T16:11:22.764Z,98858.63
2023-04-24T16:16:24.701Z,98858.88
2023-04-24T16:21:27.082Z,98865.00
2023-04-24T16:26:28.800Z,98861.50
2023-04-24T16:31:30.708Z,98877.72
2023-04-24T16:36:32.602Z,98894.72
2023-04-24T16:41:34.221Z,98892.91
2023-04-24T16:46:35.904Z,98897.94
2023-04-24T16:51:37.703Z,98898.59
2023-04-24T16:56:39.833Z,98908.72
2023-04-24T17:01:41.610Z,98914.41
2023-04-24T17:06:43.296Z,98912.72
2023-04-24T17:11:44.985Z,98907.38
2023-04-24T17:16:46.894Z,98910.25
2023-04-24T17:21:48.503Z,98918.91
2023-04-24T17:26:51.139Z,98930.47
2023-04-24T17:31:53.716Z,98941.09
2023-04-24T17:36:55.530Z,98957.13
2023-04-24T17:41:57.142Z,98957.41
2023-04-24T17:46:59.080Z,98967.38
2023-04-24T17:52:00.812Z,98971.53
2023-04-24T17:57:02.907Z,98978.97
2023-04-24T18:02:04.674Z,98983.78
2023-04-24T18:07:06.296Z,99004.00
2023-04-24T18:12:08.211Z,99014.06
2023-04-24T18:17:10.020Z,99027.91
2023-04-24T18:22:11.671Z,99030.88
2023-04-24T18:27:13.386Z,99024.50
2023-04-24T18:32:15.217Z,99039.75
2023-04-24T18:37:16.901Z,99047.69
2023-04-24T18:42:18.857Z,99049.19
2023-04-24T18:47:20.642Z,99064.41
2023-04-24T18:52:23.537Z,99067.84
2023-04-24T18:57:25.252Z,99079.28
2023-04-24T19:02:26.938Z,99077.28
2023-04-24T19:07:29.324Z,99088.28
2023-04-24T19:12:31.060Z,99091.03
2023-04-24T19:17:32.717Z,99106.06
2023-04-24T19:22:34.700Z,99099.66
2023-04-24T19:27:36.359Z,99098.94
2023-04-24T19:32:38.099Z,99104.69
2023-04-24T19:37:39.825Z,99122.81
2023-04-24T19:42:44.665Z,99112.69
2023-04-24T19:47:46.938Z,99113.13
2023-04-24T19:52:48.641Z,99105.38
2023-04-24T19:57:50.325Z,99107.03
2023-04-24T20:02:52.141Z,99115.41
2023-04-24T20:07:53.806Z,99112.69
2023-04-24T20:12:55.667Z,99115.56
2023-04-24T20:17:57.353Z,99119.31
2023-04-24T20:22:59.032Z,99123.78
2023-04-24T20:28:00.728Z,99122.09
2023-04-24T20:33:02.428Z,99124.91
2023-04-24T20:38:04.220Z,99132.06
2023-04-24T20:43:07.570Z,99131.59
2023-04-24T20:48:09.904Z,99130.97
2023-04-24T20:53:11.624Z,99129.06
2023-04-24T20:58:13.283Z,99136.50
2023-04-24T21:03:15.720Z,99135.44
2023-04-24T21:08:17.672Z,99144.09
2023-04-24T21:13:19.378Z,99141.63
2023-04-24T21:18:21.179Z,99132.22
2023-04-24T21:23:22.832Z,99137.28
2023-04-24T21:28:25.430Z,99137.84
2023-04-24T21:33:27.086Z,99137.28
2023-04-24T21:38:29.091Z,99127.91
2023-04-24T21:43:43.534Z,99124.59
2023-04-24T21:48:46.594Z,99117.34
2023-04-24T21:53:48.872Z,99115.78
2023-04-24T21:58:50.795Z,99115.88
2023-04-24T22:03:52.765Z,99111.41
2023-04-24T22:08:54.898Z,99105.50
2023-04-24T22:13:56.998Z,99101.88
2023-04-24T22:18:58.614Z,99114.84
2023-04-24T22:24:00.293Z,99110.19
2023-04-24T22:29:01.877Z,99102.97
2023-04-24T22:34:03.850Z,99114.72
2023-04-24T22:39:05.622Z,99114.56
2023-04-24T22:44:07.498Z,99108.19
2023-04-24T22:49:10.184Z,99112.06
2023-04-24T22:54:11.840Z,99110.25
2023-04-24T22:59:13.477Z,99116.72
2023-04-24T23:04:15.425Z,99125.47
2023-04-24T23:09:17.188Z,99124.50
2023-04-24T23:14:18.835Z,99130.13
2023-04-24T23:19:20.489Z,99129.19
2023-04-24T23:24:22.393Z,99136.94
2023-04-24T23:29:26.097Z,99123.34
2023-04-24T23:34:27.713Z,99125.13
2023-04-24T23:39:29.322Z,99113.28
2023-04-24T23:44:31.089Z,99114.66
2023-04-24T23:49:32.685Z,99104.03
2023-04-24T23:54:34.970Z,99109.25
2023-04-24T23:59:36.622Z,99104.75
